sensor_id;sensor_type;location;lat;lon;timestamp;P1;durP1;ratioP1;P2;durP2;ratioP2
71773;SDS011;59607;52.130;5.430;2023-07-20T00:00:35;2.10;;;1.27;;
71773;SDS011;59607;52.130;5.430;2023-07-20T00:03:11;1.92;;;1.20;;
71773;SDS011;59607;52.130;5.430;2023-07-20T00:05:54;3.08;;;1.33;;
71773;SDS011;59607;52.130;5.430;2023-07-20T00:08:21;2.88;;;1.25;;
71773;SDS011;59607;52.130;5.430;2023-07-20T00:10:51;1.20;;;1.10;;
71773;SDS011;59607;52.130;5.430;2023-07-20T00:13:27;1.70;;;1.30;;
71773;SDS011;59607;52.130;5.430;2023-07-20T00:15:58;3.40;;;1.33;;
71773;SDS011;59607;52.130;5.430;2023-07-20T00:18:24;3.83;;;1.13;;
71773;SDS011;59607;52.130;5.430;2023-07-20T00:20:51;2.20;;;0.85;;
71773;SDS011;59607;52.130;5.430;2023-07-20T00:23:30;3.20;;;1.00;;
71773;SDS011;59607;52.130;5.430;2023-07-20T00:26:03;1.40;;;0.83;;
71773;SDS011;59607;52.130;5.430;2023-07-20T00:28:30;3.85;;;1.15;;
71773;SDS011;59607;52.130;5.430;2023-07-20T00:30:56;4.38;;;0.90;;
71773;SDS011;59607;52.130;5.430;2023-07-20T00:33:31;2.22;;;1.10;;
71773;SDS011;59607;52.130;5.430;2023-07-20T00:35:58;2.15;;;0.90;;
71773;SDS011;59607;52.130;5.430;2023-07-20T00:38:30;1.73;;;0.70;;
71773;SDS011;59607;52.130;5.430;2023-07-20T00:40:56;1.08;;;0.80;;
71773;SDS011;59607;52.130;5.430;2023-07-20T00:43:26;0.70;;;0.50;;
71773;SDS011;59607;52.130;5.430;2023-07-20T00:45:56;1.00;;;0.68;;
71773;SDS011;59607;52.130;5.430;2023-07-20T00:48:22;0.98;;;0.50;;
71773;SDS011;59607;52.130;5.430;2023-07-20T00:50:57;0.80;;;0.50;;
71773;SDS011;59607;52.130;5.430;2023-07-20T00:53:25;1.55;;;0.50;;
71773;SDS011;59607;52.130;5.430;2023-07-20T00:55:59;0.80;;;0.40;;
71773;SDS011;59607;52.130;5.430;2023-07-20T00:58:26;0.70;;;0.40;;
71773;SDS011;59607;52.130;5.430;2023-07-20T01:00:52;1.30;;;0.40;;
71773;SDS011;59607;52.130;5.430;2023-07-20T01:03:27;0.67;;;0.37;;
71773;SDS011;59607;52.130;5.430;2023-07-20T01:05:54;0.95;;;0.60;;
71773;SDS011;59607;52.130;5.430;2023-07-20T01:09:07;1.25;;;0.52;;
71773;SDS011;59607;52.130;5.430;2023-07-20T01:14:16;0.75;;;0.45;;
71773;SDS011;59607;52.130;5.430;2023-07-20T01:16:46;1.33;;;0.40;;
71773;SDS011;59607;52.130;5.430;2023-07-20T01:19:16;0.70;;;0.40;;
71773;SDS011;59607;52.130;5.430;2023-07-20T01:21:51;0.80;;;0.57;;
71773;SDS011;59607;52.130;5.430;2023-07-20T01:33:24;0.90;;;0.50;;
71773;SDS011;59607;52.130;5.430;2023-07-20T01:35:57;0.63;;;0.52;;
71773;SDS011;59607;52.130;5.430;2023-07-20T01:38:27;1.05;;;0.50;;
71773;SDS011;59607;52.130;5.430;2023-07-20T01:40:59;0.77;;;0.40;;
71773;SDS011;59607;52.130;5.430;2023-07-20T01:43:29;1.13;;;0.60;;
71773;SDS011;59607;52.130;5.430;2023-07-20T01:45:58;1.58;;;0.55;;
71773;SDS011;59607;52.130;5.430;2023-07-20T01:48:29;1.15;;;0.60;;
71773;SDS011;59607;52.130;5.430;2023-07-20T01:50:55;1.05;;;0.52;;
71773;SDS011;59607;52.130;5.430;2023-07-20T01:53:23;0.60;;;0.43;;
71773;SDS011;59607;52.130;5.430;2023-07-20T01:55:54;1.73;;;0.30;;
71773;SDS011;59607;52.130;5.430;2023-07-20T01:58:24;0.80;;;0.35;;
71773;SDS011;59607;52.130;5.430;2023-07-20T02:00:54;1.02;;;0.50;;
71773;SDS011;59607;52.130;5.430;2023-07-20T02:03:20;0.98;;;0.50;;
71773;SDS011;59607;52.130;5.430;2023-07-20T02:05:48;0.88;;;0.50;;
71773;SDS011;59607;52.130;5.430;2023-07-20T02:08:27;1.43;;;0.70;;
71773;SDS011;59607;52.130;5.430;2023-07-20T02:11:00;0.68;;;0.52;;
71773;SDS011;59607;52.130;5.430;2023-07-20T02:13:27;1.85;;;0.50;;
71773;SDS011;59607;52.130;5.430;2023-07-20T02:16:07;0.80;;;0.50;;
71773;SDS011;59607;52.130;5.430;2023-07-20T02:18:34;0.75;;;0.40;;
71773;SDS011;59607;52.130;5.430;2023-07-20T02:21:04;2.30;;;0.50;;
71773;SDS011;59607;52.130;5.430;2023-07-20T02:23:31;1.38;;;0.70;;
71773;SDS011;59607;52.130;5.430;2023-07-20T02:26:01;1.00;;;0.60;;
71773;SDS011;59607;52.130;5.430;2023-07-20T02:28:27;1.40;;;0.95;;
71773;SDS011;59607;52.130;5.430;2023-07-20T02:30:55;0.98;;;0.70;;
71773;SDS011;59607;52.130;5.430;2023-07-20T02:33:21;0.80;;;0.53;;
71773;SDS011;59607;52.130;5.430;2023-07-20T02:35:53;1.05;;;0.70;;
71773;SDS011;59607;52.130;5.430;2023-07-20T02:38:20;1.42;;;0.82;;
71773;SDS011;59607;52.130;5.430;2023-07-20T02:40:55;1.60;;;0.90;;
71773;SDS011;59607;52.130;5.430;2023-07-20T02:43:21;1.05;;;0.85;;
71773;SDS011;59607;52.130;5.430;2023-07-20T02:45:48;1.00;;;0.60;;
71773;SDS011;59607;52.130;5.430;2023-07-20T02:48:21;1.60;;;0.80;;
71773;SDS011;59607;52.130;5.430;2023-07-20T02:50:47;2.05;;;0.70;;
71773;SDS011;59607;52.130;5.430;2023-07-20T02:53:15;1.17;;;0.70;;
71773;SDS011;59607;52.130;5.430;2023-07-20T02:55:42;1.60;;;0.55;;
71773;SDS011;59607;52.130;5.430;2023-07-20T02:58:08;1.13;;;0.63;;
71773;SDS011;59607;52.130;5.430;2023-07-20T03:00:35;2.08;;;0.70;;
71773;SDS011;59607;52.130;5.430;2023-07-20T03:03:11;1.65;;;0.68;;
71773;SDS011;59607;52.130;5.430;2023-07-20T03:05:43;0.90;;;0.57;;
71773;SDS011;59607;52.130;5.430;2023-07-20T03:08:13;1.20;;;0.70;;
71773;SDS011;59607;52.130;5.430;2023-07-20T03:10:43;1.00;;;0.67;;
71773;SDS011;59607;52.130;5.430;2023-07-20T03:13:12;1.25;;;0.60;;
71773;SDS011;59607;52.130;5.430;2023-07-20T03:15:40;0.93;;;0.60;;
71773;SDS011;59607;52.130;5.430;2023-07-20T03:18:07;1.10;;;0.80;;
71773;SDS011;59607;52.130;5.430;2023-07-20T03:20:36;4.13;;;0.70;;
71773;SDS011;59607;52.130;5.430;2023-07-20T03:23:03;0.67;;;0.43;;
71773;SDS011;59607;52.130;5.430;2023-07-20T03:25:30;2.70;;;0.70;;
71773;SDS011;59607;52.130;5.430;2023-07-20T03:27:59;1.67;;;0.60;;
71773;SDS011;59607;52.130;5.430;2023-07-20T03:30:26;1.80;;;0.47;;
71773;SDS011;59607;52.130;5.430;2023-07-20T03:32:52;0.80;;;0.50;;
71773;SDS011;59607;52.130;5.430;2023-07-20T03:35:23;1.00;;;0.70;;
71773;SDS011;59607;52.130;5.430;2023-07-20T03:37:50;1.42;;;0.45;;
71773;SDS011;59607;52.130;5.430;2023-07-20T03:40:19;1.50;;;0.60;;
71773;SDS011;59607;52.130;5.430;2023-07-20T03:42:49;0.75;;;0.57;;
71773;SDS011;59607;52.130;5.430;2023-07-20T03:45:16;1.00;;;0.60;;
71773;SDS011;59607;52.130;5.430;2023-07-20T03:47:59;1.17;;;0.40;;
71773;SDS011;59607;52.130;5.430;2023-07-20T03:50:26;1.58;;;0.52;;
71773;SDS011;59607;52.130;5.430;2023-07-20T03:52:53;1.38;;;0.60;;
71773;SDS011;59607;52.130;5.430;2023-07-20T03:55:19;0.82;;;0.60;;
71773;SDS011;59607;52.130;5.430;2023-07-20T03:57:46;1.27;;;0.70;;
71773;SDS011;59607;52.130;5.430;2023-07-20T04:00:26;0.77;;;0.60;;
71773;SDS011;59607;52.130;5.430;2023-07-20T04:02:55;2.00;;;0.70;;
71773;SDS011;59607;52.130;5.430;2023-07-20T04:05:25;2.35;;;0.70;;
71773;SDS011;59607;52.130;5.430;2023-07-20T04:08:01;1.15;;;0.70;;
71773;SDS011;59607;52.130;5.430;2023-07-20T04:10:27;1.38;;;0.77;;
71773;SDS011;59607;52.130;5.430;2023-07-20T04:12:54;1.50;;;0.90;;
71773;SDS011;59607;52.130;5.430;2023-07-20T04:15:35;1.02;;;0.65;;
71773;SDS011;59607;52.130;5.430;2023-07-20T04:18:01;1.95;;;1.23;;
71773;SDS011;59607;52.130;5.430;2023-07-20T04:20:28;1.52;;;0.80;;
71773;SDS011;59607;52.130;5.430;2023-07-20T04:22:54;1.90;;;0.90;;
71773;SDS011;59607;52.130;5.430;2023-07-20T04:25:21;0.93;;;0.60;;
71773;SDS011;59607;52.130;5.430;2023-07-20T04:27:51;1.35;;;0.85;;
71773;SDS011;59607;52.130;5.430;2023-07-20T04:30:23;1.05;;;0.70;;
71773;SDS011;59607;52.130;5.430;2023-07-20T04:32:56;0.88;;;0.65;;
71773;SDS011;59607;52.130;5.430;2023-07-20T04:38:18;0.90;;;0.80;;
71773;SDS011;59607;52.130;5.430;2023-07-20T04:40:47;1.55;;;0.85;;
71773;SDS011;59607;52.130;5.430;2023-07-20T04:43:15;3.03;;;0.90;;
71773;SDS011;59607;52.130;5.430;2023-07-20T04:45:46;1.20;;;0.90;;
71773;SDS011;59607;52.130;5.430;2023-07-20T04:48:19;1.98;;;0.98;;
71773;SDS011;59607;52.130;5.430;2023-07-20T04:50:49;1.67;;;0.80;;
71773;SDS011;59607;52.130;5.430;2023-07-20T04:53:15;1.73;;;0.90;;
71773;SDS011;59607;52.130;5.430;2023-07-20T04:55:48;1.13;;;0.90;;
71773;SDS011;59607;52.130;5.430;2023-07-20T04:58:22;1.17;;;0.90;;
71773;SDS011;59607;52.130;5.430;2023-07-20T05:00:49;1.70;;;1.20;;
71773;SDS011;59607;52.130;5.430;2023-07-20T05:03:16;1.47;;;1.13;;
71773;SDS011;59607;52.130;5.430;2023-07-20T05:06:01;1.67;;;1.27;;
71773;SDS011;59607;52.130;5.430;2023-07-20T05:08:42;4.18;;;1.60;;
71773;SDS011;59607;52.130;5.430;2023-07-20T05:11:11;5.80;;;1.02;;
71773;SDS011;59607;52.130;5.430;2023-07-20T05:13:41;10.13;;;2.20;;
71773;SDS011;59607;52.130;5.430;2023-07-20T05:16:07;2.13;;;1.07;;
71773;SDS011;59607;52.130;5.430;2023-07-20T05:18:39;4.63;;;1.00;;
71773;SDS011;59607;52.130;5.430;2023-07-20T05:21:05;3.72;;;1.00;;
71773;SDS011;59607;52.130;5.430;2023-07-20T05:23:32;3.78;;;1.10;;
71773;SDS011;59607;52.130;5.430;2023-07-20T05:26:12;6.40;;;1.00;;
71773;SDS011;59607;52.130;5.430;2023-07-20T05:28:44;1.53;;;0.60;;
71773;SDS011;59607;52.130;5.430;2023-07-20T05:31:10;1.63;;;1.00;;
71773;SDS011;59607;52.130;5.430;2023-07-20T05:33:37;2.28;;;1.00;;
71773;SDS011;59607;52.130;5.430;2023-07-20T05:36:09;1.33;;;1.10;;
71773;SDS011;59607;52.130;5.430;2023-07-20T05:38:36;10.23;;;1.40;;
71773;SDS011;59607;52.130;5.430;2023-07-20T05:41:07;3.33;;;1.00;;
71773;SDS011;59607;52.130;5.430;2023-07-20T05:43:36;3.90;;;1.20;;
71773;SDS011;59607;52.130;5.430;2023-07-20T05:46:03;2.40;;;1.40;;
71773;SDS011;59607;52.130;5.430;2023-07-20T05:48:38;1.65;;;1.10;;
71773;SDS011;59607;52.130;5.430;2023-07-20T05:51:04;2.50;;;1.17;;
71773;SDS011;59607;52.130;5.430;2023-07-20T05:53:51;1.13;;;0.90;;
71773;SDS011;59607;52.130;5.430;2023-07-20T05:56:18;2.05;;;1.25;;
71773;SDS011;59607;52.130;5.430;2023-07-20T05:58:45;2.03;;;0.80;;
71773;SDS011;59607;52.130;5.430;2023-07-20T06:01:12;1.85;;;1.05;;
71773;SDS011;59607;52.130;5.430;2023-07-20T06:03:39;0.98;;;0.88;;
71773;SDS011;59607;52.130;5.430;2023-07-20T06:06:09;1.90;;;1.00;;
71773;SDS011;59607;52.130;5.430;2023-07-20T06:08:40;1.42;;;0.80;;
71773;SDS011;59607;52.130;5.430;2023-07-20T06:11:06;1.73;;;1.00;;
71773;SDS011;59607;52.130;5.430;2023-07-20T06:13:33;2.10;;;0.50;;
71773;SDS011;59607;52.130;5.430;2023-07-20T06:16:00;3.05;;;0.98;;
71773;SDS011;59607;52.130;5.430;2023-07-20T06:18:30;1.20;;;0.60;;
71773;SDS011;59607;52.130;5.430;2023-07-20T06:20:57;3.55;;;1.00;;
71773;SDS011;59607;52.130;5.430;2023-07-20T06:23:23;1.77;;;1.35;;
71773;SDS011;59607;52.130;5.430;2023-07-20T06:25:56;1.73;;;0.90;;
71773;SDS011;59607;52.130;5.430;2023-07-20T06:28:24;2.95;;;0.85;;
71773;SDS011;59607;52.130;5.430;2023-07-20T06:31:00;1.23;;;0.43;;
71773;SDS011;59607;52.130;5.430;2023-07-20T06:33:28;2.25;;;0.60;;
71773;SDS011;59607;52.130;5.430;2023-07-20T06:36:17;1.05;;;0.50;;
71773;SDS011;59607;52.130;5.430;2023-07-20T06:38:46;0.93;;;0.40;;
71773;SDS011;59607;52.130;5.430;2023-07-20T06:41:32;1.00;;;0.50;;
71773;SDS011;59607;52.130;5.430;2023-07-20T06:44:05;2.33;;;0.43;;
71773;SDS011;59607;52.130;5.430;2023-07-20T06:46:31;1.02;;;0.45;;
71773;SDS011;59607;52.130;5.430;2023-07-20T06:49:01;4.93;;;0.60;;
71773;SDS011;59607;52.130;5.430;2023-07-20T06:51:47;1.70;;;1.00;;
71773;SDS011;59607;52.130;5.430;2023-07-20T06:54:14;5.13;;;0.57;;
71773;SDS011;59607;52.130;5.430;2023-07-20T06:56:40;0.90;;;0.27;;
71773;SDS011;59607;52.130;5.430;2023-07-20T06:59:12;2.13;;;0.40;;
71773;SDS011;59607;52.130;5.430;2023-07-20T07:01:38;3.35;;;0.90;;
71773;SDS011;59607;52.130;5.430;2023-07-20T07:04:05;2.25;;;0.40;;
71773;SDS011;59607;52.130;5.430;2023-07-20T07:06:37;1.45;;;0.60;;
71773;SDS011;59607;52.130;5.430;2023-07-20T07:09:04;1.97;;;0.60;;
71773;SDS011;59607;52.130;5.430;2023-07-20T07:11:48;1.48;;;0.40;;
71773;SDS011;59607;52.130;5.430;2023-07-20T07:14:28;2.20;;;0.30;;
71773;SDS011;59607;52.130;5.430;2023-07-20T07:17:01;3.13;;;0.73;;
71773;SDS011;59607;52.130;5.430;2023-07-20T07:19:32;1.00;;;0.38;;
71773;SDS011;59607;52.130;5.430;2023-07-20T07:22:04;1.20;;;0.30;;
71773;SDS011;59607;52.130;5.430;2023-07-20T07:24:30;0.93;;;0.30;;
71773;SDS011;59607;52.130;5.430;2023-07-20T07:27:20;0.90;;;0.30;;
71773;SDS011;59607;52.130;5.430;2023-07-20T07:29:47;0.98;;;0.30;;
71773;SDS011;59607;52.130;5.430;2023-07-20T07:32:14;1.73;;;0.30;;
71773;SDS011;59607;52.130;5.430;2023-07-20T07:34:41;0.70;;;0.30;;
71773;SDS011;59607;52.130;5.430;2023-07-20T07:37:12;0.82;;;0.20;;
71773;SDS011;59607;52.130;5.430;2023-07-20T07:39:39;1.95;;;0.30;;
71773;SDS011;59607;52.130;5.430;2023-07-20T07:42:06;1.02;;;0.28;;
71773;SDS011;59607;52.130;5.430;2023-07-20T07:44:37;0.60;;;0.30;;
71773;SDS011;59607;52.130;5.430;2023-07-20T07:47:04;1.43;;;0.30;;
71773;SDS011;59607;52.130;5.430;2023-07-20T07:49:34;1.30;;;0.20;;
71773;SDS011;59607;52.130;5.430;2023-07-20T07:52:03;0.63;;;0.30;;
71773;SDS011;59607;52.130;5.430;2023-07-20T07:54:33;1.13;;;0.20;;
71773;SDS011;59607;52.130;5.430;2023-07-20T07:57:02;1.60;;;0.30;;
71773;SDS011;59607;52.130;5.430;2023-07-20T07:59:29;0.80;;;0.30;;
71773;SDS011;59607;52.130;5.430;2023-07-20T08:02:00;1.10;;;0.20;;
71773;SDS011;59607;52.130;5.430;2023-07-20T08:04:26;2.20;;;0.40;;
71773;SDS011;59607;52.130;5.430;2023-07-20T08:06:53;1.45;;;0.30;;
71773;SDS011;59607;52.130;5.430;2023-07-20T08:09:25;1.35;;;0.20;;
71773;SDS011;59607;52.130;5.430;2023-07-20T08:11:56;0.80;;;0.30;;
71773;SDS011;59607;52.130;5.430;2023-07-20T08:14:25;1.17;;;0.30;;
71773;SDS011;59607;52.130;5.430;2023-07-20T08:16:54;0.70;;;0.30;;
71773;SDS011;59607;52.130;5.430;2023-07-20T08:19:21;0.80;;;0.30;;
71773;SDS011;59607;52.130;5.430;2023-07-20T08:21:55;0.50;;;0.30;;
71773;SDS011;59607;52.130;5.430;2023-07-20T08:24:21;0.70;;;0.30;;
71773;SDS011;59607;52.130;5.430;2023-07-20T08:26:48;0.45;;;0.30;;
71773;SDS011;59607;52.130;5.430;2023-07-20T08:29:20;0.60;;;0.30;;
71773;SDS011;59607;52.130;5.430;2023-07-20T08:31:46;1.70;;;0.20;;
71773;SDS011;59607;52.130;5.430;2023-07-20T08:34:13;0.70;;;0.20;;
71773;SDS011;59607;52.130;5.430;2023-07-20T08:36:56;0.73;;;0.20;;
71773;SDS011;59607;52.130;5.430;2023-07-20T08:39:24;0.77;;;0.32;;
71773;SDS011;59607;52.130;5.430;2023-07-20T08:41:51;0.30;;;0.20;;
71773;SDS011;59607;52.130;5.430;2023-07-20T08:44:18;0.55;;;0.40;;
71773;SDS011;59607;52.130;5.430;2023-07-20T08:46:49;0.70;;;0.20;;
71773;SDS011;59607;52.130;5.430;2023-07-20T08:49:16;0.53;;;0.30;;
71773;SDS011;59607;52.130;5.430;2023-07-20T08:51:59;0.60;;;0.20;;
71773;SDS011;59607;52.130;5.430;2023-07-20T08:54:42;4.60;;;0.30;;
71773;SDS011;59607;52.130;5.430;2023-07-20T08:57:22;0.98;;;0.25;;
71773;SDS011;59607;52.130;5.430;2023-07-20T08:59:51;0.60;;;0.20;;
71773;SDS011;59607;52.130;5.430;2023-07-20T09:02:23;1.07;;;0.30;;
71773;SDS011;59607;52.130;5.430;2023-07-20T09:05:07;0.45;;;0.20;;
71773;SDS011;59607;52.130;5.430;2023-07-20T09:07:48;1.52;;;0.30;;
71773;SDS011;59607;52.130;5.430;2023-07-20T09:10:21;1.30;;;0.20;;
71773;SDS011;59607;52.130;5.430;2023-07-20T09:12:48;0.95;;;0.20;;
71773;SDS011;59607;52.130;5.430;2023-07-20T09:15:19;1.60;;;0.20;;
71773;SDS011;59607;52.130;5.430;2023-07-20T09:17:48;0.52;;;0.20;;
71773;SDS011;59607;52.130;5.430;2023-07-20T09:20:20;1.08;;;0.20;;
71773;SDS011;59607;52.130;5.430;2023-07-20T09:22:52;0.57;;;0.30;;
71773;SDS011;59607;52.130;5.430;2023-07-20T09:25:19;0.73;;;0.30;;
71773;SDS011;59607;52.130;5.430;2023-07-20T09:27:52;0.90;;;0.30;;
71773;SDS011;59607;52.130;5.430;2023-07-20T09:30:21;0.30;;;0.20;;
71773;SDS011;59607;52.130;5.430;2023-07-20T09:32:57;0.95;;;0.20;;
71773;SDS011;59607;52.130;5.430;2023-07-20T09:35:25;0.40;;;0.20;;
71773;SDS011;59607;52.130;5.430;2023-07-20T09:38:08;0.60;;;0.30;;
71773;SDS011;59607;52.130;5.430;2023-07-20T09:40:59;0.73;;;0.30;;
71773;SDS011;59607;52.130;5.430;2023-07-20T09:43:28;0.30;;;0.20;;
71773;SDS011;59607;52.130;5.430;2023-07-20T09:46:06;0.50;;;0.30;;
71773;SDS011;59607;52.130;5.430;2023-07-20T09:48:35;1.52;;;0.20;;
71773;SDS011;59607;52.130;5.430;2023-07-20T09:51:25;0.32;;;0.30;;
71773;SDS011;59607;52.130;5.430;2023-07-20T09:53:52;0.50;;;0.20;;
71773;SDS011;59607;52.130;5.430;2023-07-20T09:56:25;0.43;;;0.20;;
71773;SDS011;59607;52.130;5.430;2023-07-20T09:58:58;0.50;;;0.20;;
71773;SDS011;59607;52.130;5.430;2023-07-20T10:01:27;0.80;;;0.20;;
71773;SDS011;59607;52.130;5.430;2023-07-20T10:03:55;0.70;;;0.30;;
71773;SDS011;59607;52.130;5.430;2023-07-20T10:06:27;0.50;;;0.20;;
71773;SDS011;59607;52.130;5.430;2023-07-20T10:09:05;1.20;;;0.25;;
71773;SDS011;59607;52.130;5.430;2023-07-20T10:11:35;1.90;;;0.20;;
71773;SDS011;59607;52.130;5.430;2023-07-20T10:14:05;0.30;;;0.20;;
71773;SDS011;59607;52.130;5.430;2023-07-20T10:16:39;1.42;;;0.35;;
71773;SDS011;59607;52.130;5.430;2023-07-20T10:22:18;0.55;;;0.20;;
71773;SDS011;59607;52.130;5.430;2023-07-20T10:24:49;0.60;;;0.20;;
71773;SDS011;59607;52.130;5.430;2023-07-20T10:27:22;0.57;;;0.20;;
71773;SDS011;59607;52.130;5.430;2023-07-20T10:29:54;0.50;;;0.20;;
71773;SDS011;59607;52.130;5.430;2023-07-20T10:32:24;0.40;;;0.20;;
71773;SDS011;59607;52.130;5.430;2023-07-20T10:34:51;0.77;;;0.50;;
71773;SDS011;59607;52.130;5.430;2023-07-20T10:40:25;0.30;;;0.20;;
71773;SDS011;59607;52.130;5.430;2023-07-20T10:43:06;1.48;;;0.20;;
71773;SDS011;59607;52.130;5.430;2023-07-20T10:45:41;0.70;;;0.30;;
71773;SDS011;59607;52.130;5.430;2023-07-20T10:48:21;0.30;;;0.22;;
71773;SDS011;59607;52.130;5.430;2023-07-20T10:53:56;1.40;;;0.30;;
71773;SDS011;59607;52.130;5.430;2023-07-20T10:56:27;2.30;;;0.20;;
71773;SDS011;59607;52.130;5.430;2023-07-20T10:58:58;0.63;;;0.20;;
71773;SDS011;59607;52.130;5.430;2023-07-20T11:01:27;0.50;;;0.30;;
71773;SDS011;59607;52.130;5.430;2023-07-20T11:04:10;0.55;;;0.30;;
71773;SDS011;59607;52.130;5.430;2023-07-20T11:07:00;0.40;;;0.20;;
71773;SDS011;59607;52.130;5.430;2023-07-20T11:09:50;0.70;;;0.30;;
71773;SDS011;59607;52.130;5.430;2023-07-20T11:12:21;0.77;;;0.30;;
71773;SDS011;59607;52.130;5.430;2023-07-20T11:14:55;1.30;;;0.20;;
71773;SDS011;59607;52.130;5.430;2023-07-20T11:17:35;0.40;;;0.20;;
71773;SDS011;59607;52.130;5.430;2023-07-20T11:20:05;0.65;;;0.63;;
71773;SDS011;59607;52.130;5.430;2023-07-20T11:22:38;1.95;;;0.30;;
71773;SDS011;59607;52.130;5.430;2023-07-20T11:25:09;0.40;;;0.30;;
71773;SDS011;59607;52.130;5.430;2023-07-20T11:27:44;7.30;;;0.75;;
71773;SDS011;59607;52.130;5.430;2023-07-20T11:30:16;0.40;;;0.32;;
71773;SDS011;59607;52.130;5.430;2023-07-20T11:32:47;0.63;;;0.30;;
71773;SDS011;59607;52.130;5.430;2023-07-20T11:35:20;2.50;;;0.50;;
71773;SDS011;59607;52.130;5.430;2023-07-20T11:37:46;0.67;;;0.33;;
71773;SDS011;59607;52.130;5.430;2023-07-20T11:40:22;0.60;;;0.30;;
71773;SDS011;59607;52.130;5.430;2023-07-20T11:42:52;0.40;;;0.30;;
71773;SDS011;59607;52.130;5.430;2023-07-20T11:45:45;1.45;;;0.30;;
71773;SDS011;59607;52.130;5.430;2023-07-20T11:48:15;0.80;;;0.40;;
71773;SDS011;59607;52.130;5.430;2023-07-20T11:50:47;0.60;;;0.20;;
71773;SDS011;59607;52.130;5.430;2023-07-20T11:53:14;1.67;;;0.30;;
71773;SDS011;59607;52.130;5.430;2023-07-20T11:55:49;0.60;;;0.30;;
71773;SDS011;59607;52.130;5.430;2023-07-20T11:58:16;1.10;;;0.30;;
71773;SDS011;59607;52.130;5.430;2023-07-20T12:00:53;5.53;;;0.40;;
71773;SDS011;59607;52.130;5.430;2023-07-20T12:03:21;0.30;;;0.30;;
71773;SDS011;59607;52.130;5.430;2023-07-20T12:05:49;0.40;;;0.30;;
71773;SDS011;59607;52.130;5.430;2023-07-20T12:08:27;0.70;;;0.43;;
71773;SDS011;59607;52.130;5.430;2023-07-20T12:10:57;2.17;;;0.28;;
71773;SDS011;59607;52.130;5.430;2023-07-20T12:13:35;0.88;;;0.40;;
71773;SDS011;59607;52.130;5.430;2023-07-20T12:16:14;0.40;;;0.20;;
71773;SDS011;59607;52.130;5.430;2023-07-20T12:18:47;1.95;;;0.40;;
71773;SDS011;59607;52.130;5.430;2023-07-20T12:21:22;0.52;;;0.30;;
71773;SDS011;59607;52.130;5.430;2023-07-20T12:23:49;1.30;;;0.20;;
71773;SDS011;59607;52.130;5.430;2023-07-20T12:26:19;2.15;;;0.30;;
71773;SDS011;59607;52.130;5.430;2023-07-20T12:28:52;1.17;;;0.30;;
71773;SDS011;59607;52.130;5.430;2023-07-20T12:31:21;0.65;;;0.38;;
71773;SDS011;59607;52.130;5.430;2023-07-20T12:33:49;6.10;;;0.50;;
71773;SDS011;59607;52.130;5.430;2023-07-20T12:36:19;2.65;;;0.40;;
71773;SDS011;59607;52.130;5.430;2023-07-20T12:38:53;0.73;;;0.20;;
71773;SDS011;59607;52.130;5.430;2023-07-20T12:41:19;1.33;;;0.30;;
71773;SDS011;59607;52.130;5.430;2023-07-20T12:44:00;0.90;;;0.30;;
71773;SDS011;59607;52.130;5.430;2023-07-20T12:46:36;1.00;;;0.40;;
71773;SDS011;59607;52.130;5.430;2023-07-20T12:49:03;2.55;;;0.40;;
71773;SDS011;59607;52.130;5.430;2023-07-20T12:51:32;0.80;;;0.30;;
71773;SDS011;59607;52.130;5.430;2023-07-20T12:53:59;2.10;;;0.50;;
71773;SDS011;59607;52.130;5.430;2023-07-20T12:56:25;1.73;;;0.20;;
71773;SDS011;59607;52.130;5.430;2023-07-20T12:58:54;0.85;;;0.40;;
71773;SDS011;59607;52.130;5.430;2023-07-20T13:01:24;0.65;;;0.30;;
71773;SDS011;59607;52.130;5.430;2023-07-20T13:03:50;0.47;;;0.30;;
71773;SDS011;59607;52.130;5.430;2023-07-20T13:06:22;0.40;;;0.20;;
71773;SDS011;59607;52.130;5.430;2023-07-20T13:08:55;0.30;;;0.20;;
71773;SDS011;59607;52.130;5.430;2023-07-20T13:11:33;0.95;;;0.30;;
71773;SDS011;59607;52.130;5.430;2023-07-20T13:14:01;0.30;;;0.20;;
71773;SDS011;59607;52.130;5.430;2023-07-20T13:16:31;0.68;;;0.20;;
71773;SDS011;59607;52.130;5.430;2023-07-20T13:18:58;0.60;;;0.30;;
71773;SDS011;59607;52.130;5.430;2023-07-20T13:21:24;1.67;;;0.20;;
71773;SDS011;59607;52.130;5.430;2023-07-20T13:23:57;0.90;;;0.50;;
71773;SDS011;59607;52.130;5.430;2023-07-20T13:26:23;1.15;;;0.40;;
71773;SDS011;59607;52.130;5.430;2023-07-20T13:28:53;1.55;;;0.40;;
71773;SDS011;59607;52.130;5.430;2023-07-20T13:31:23;1.93;;;0.20;;
71773;SDS011;59607;52.130;5.430;2023-07-20T13:33:50;3.45;;;0.40;;
71773;SDS011;59607;52.130;5.430;2023-07-20T13:36:25;2.20;;;0.20;;
71773;SDS011;59607;52.130;5.430;2023-07-20T13:38:52;0.80;;;0.50;;
71773;SDS011;59607;52.130;5.430;2023-07-20T13:41:21;1.10;;;0.30;;
71773;SDS011;59607;52.130;5.430;2023-07-20T13:43:51;1.80;;;0.50;;
71773;SDS011;59607;52.130;5.430;2023-07-20T13:46:23;1.02;;;0.28;;
71773;SDS011;59607;52.130;5.430;2023-07-20T13:48:55;1.17;;;0.40;;
71773;SDS011;59607;52.130;5.430;2023-07-20T13:51:24;1.25;;;0.32;;
71773;SDS011;59607;52.130;5.430;2023-07-20T13:53:56;0.52;;;0.30;;
71773;SDS011;59607;52.130;5.430;2023-07-20T13:56:23;0.50;;;0.27;;
71773;SDS011;59607;52.130;5.430;2023-07-20T13:58:55;17.63;;;0.70;;
71773;SDS011;59607;52.130;5.430;2023-07-20T14:01:27;1.50;;;0.40;;
71773;SDS011;59607;52.130;5.430;2023-07-20T14:04:07;0.77;;;0.40;;
71773;SDS011;59607;52.130;5.430;2023-07-20T14:06:38;0.60;;;0.30;;
71773;SDS011;59607;52.130;5.430;2023-07-20T14:09:04;0.43;;;0.30;;
71773;SDS011;59607;52.130;5.430;2023-07-20T14:11:34;0.50;;;0.30;;
71773;SDS011;59607;52.130;5.430;2023-07-20T14:14:23;0.88;;;0.30;;
71773;SDS011;59607;52.130;5.430;2023-07-20T14:16:50;1.38;;;0.30;;
71773;SDS011;59607;52.130;5.430;2023-07-20T14:19:27;1.05;;;0.82;;
71773;SDS011;59607;52.130;5.430;2023-07-20T14:21:54;0.93;;;0.30;;
71773;SDS011;59607;52.130;5.430;2023-07-20T14:24:21;0.60;;;0.30;;
71773;SDS011;59607;52.130;5.430;2023-07-20T14:26:48;0.95;;;0.30;;
71773;SDS011;59607;52.130;5.430;2023-07-20T14:29:17;1.00;;;0.20;;
71773;SDS011;59607;52.130;5.430;2023-07-20T14:31:52;0.73;;;0.25;;
71773;SDS011;59607;52.130;5.430;2023-07-20T14:34:19;1.77;;;0.40;;
71773;SDS011;59607;52.130;5.430;2023-07-20T14:36:46;0.43;;;0.20;;
71773;SDS011;59607;52.130;5.430;2023-07-20T14:39:16;0.75;;;0.30;;
71773;SDS011;59607;52.130;5.430;2023-07-20T14:41:42;1.63;;;0.30;;
71773;SDS011;59607;52.130;5.430;2023-07-20T14:44:09;0.70;;;0.30;;
71773;SDS011;59607;52.130;5.430;2023-07-20T14:46:38;1.83;;;0.30;;
71773;SDS011;59607;52.130;5.430;2023-07-20T14:49:05;0.95;;;0.20;;
71773;SDS011;59607;52.130;5.430;2023-07-20T14:51:31;0.90;;;0.30;;
71773;SDS011;59607;52.130;5.430;2023-07-20T14:54:03;0.88;;;0.30;;
71773;SDS011;59607;52.130;5.430;2023-07-20T14:56:30;1.17;;;0.40;;
71773;SDS011;59607;52.130;5.430;2023-07-20T14:59:02;1.80;;;0.30;;
71773;SDS011;59607;52.130;5.430;2023-07-20T15:01:32;3.00;;;0.40;;
71773;SDS011;59607;52.130;5.430;2023-07-20T15:04:05;1.25;;;0.43;;
71773;SDS011;59607;52.130;5.430;2023-07-20T15:06:35;2.45;;;0.30;;
71773;SDS011;59607;52.130;5.430;2023-07-20T15:09:01;1.05;;;0.30;;
71773;SDS011;59607;52.130;5.430;2023-07-20T15:11:33;0.70;;;0.30;;
71773;SDS011;59607;52.130;5.430;2023-07-20T15:14:00;0.98;;;0.30;;
71773;SDS011;59607;52.130;5.430;2023-07-20T15:16:29;0.70;;;0.30;;
71773;SDS011;59607;52.130;5.430;2023-07-20T15:18:56;0.60;;;0.30;;
71773;SDS011;59607;52.130;5.430;2023-07-20T15:21:22;1.00;;;0.30;;
71773;SDS011;59607;52.130;5.430;2023-07-20T15:23:53;1.13;;;0.40;;
71773;SDS011;59607;52.130;5.430;2023-07-20T15:26:20;0.82;;;0.50;;
71773;SDS011;59607;52.130;5.430;2023-07-20T15:28:47;6.70;;;1.63;;
71773;SDS011;59607;52.130;5.430;2023-07-20T15:31:19;2.45;;;0.30;;
71773;SDS011;59607;52.130;5.430;2023-07-20T15:34:09;0.63;;;0.30;;